sensor_id;sensor_type;location;lat;lon;timestamp;pressure;altitude;pressure_sealevel;temperature;humidity
48029;BME280;33808;37.368;127.108;2023-01-25T06:48:29;101173.28;;;25.71;19.37
48029;BME280;33808;37.368;127.108;2023-01-25T06:51:33;101169.94;;;25.89;19.34
48029;BME280;33808;37.368;127.108;2023-01-25T06:55:02;101154.78;;;25.99;19.15
48029;BME280;33808;37.368;127.108;2023-01-25T06:58:31;101145.06;;;26.17;19.43
48029;BME280;33808;37.368;127.108;2023-01-25T07:01:59;101146.75;;;26.28;19.15
48029;BME280;33808;37.368;127.108;2023-01-25T07:04:53;101149.69;;;26.35;19.23
48029;BME280;33808;37.368;127.108;2023-01-25T07:07:22;101160.84;;;26.40;19.24
48029;BME280;33808;37.368;127.108;2023-01-25T07:09:52;101148.72;;;26.36;19.01
48029;BME280;33808;37.368;127.108;2023-01-25T07:12:22;101150.13;;;26.50;19.29
48029;BME280;33808;37.368;127.108;2023-01-25T07:14:52;101145.34;;;26.43;19.21
48029;BME280;33808;37.368;127.108;2023-01-25T07:17:21;101144.78;;;26.40;18.95
48029;BME280;33808;37.368;127.108;2023-01-25T07:19:51;101134.63;;;26.43;19.33
48029;BME280;33808;37.368;127.108;2023-01-25T07:22:40;101126.72;;;26.61;19.10
48029;BME280;33808;37.368;127.108;2023-01-25T07:26:19;101119.50;;;26.72;18.89
48029;BME280;33808;37.368;127.108;2023-01-25T07:29:38;101119.78;;;26.78;18.84
48029;BME280;33808;37.368;127.108;2023-01-25T07:33:07;101111.16;;;26.85;18.85
48029;BME280;33808;37.368;127.108;2023-01-25T07:36:36;101109.44;;;26.93;19.14
48029;BME280;33808;37.368;127.108;2023-01-25T07:40:04;101104.06;;;26.93;19.10
48029;BME280;33808;37.368;127.108;2023-01-25T07:43:13;101100.69;;;26.91;18.70
48029;BME280;33808;37.368;127.108;2023-01-25T07:45:43;101104.06;;;26.93;18.99
48029;BME280;33808;37.368;127.108;2023-01-25T07:48:17;101113.81;;;26.85;18.88
48029;BME280;33808;37.368;127.108;2023-01-25T07:50:50;101114.28;;;26.80;18.93
48029;BME280;33808;37.368;127.108;2023-01-25T07:53:40;101114.13;;;26.72;19.16
48029;BME280;33808;37.368;127.108;2023-01-25T07:56:11;101110.88;;;26.78;18.97
48029;BME280;33808;37.368;127.108;2023-01-25T07:59:01;101122.56;;;26.87;19.29
48029;BME280;33808;37.368;127.108;2023-01-25T08:02:29;101120.16;;;26.84;18.85
48029;BME280;33808;37.368;127.108;2023-01-25T08:05:57;101115.38;;;26.77;18.90
48029;BME280;33808;37.368;127.108;2023-01-25T08:09:32;101114.69;;;26.75;19.16
48029;BME280;33808;37.368;127.108;2023-01-25T08:13:01;101117.38;;;26.75;19.28
48029;BME280;33808;37.368;127.108;2023-01-25T08:16:30;101125.66;;;26.92;19.25
48029;BME280;33808;37.368;127.108;2023-01-25T08:19:59;101117.72;;;27.00;19.35
48029;BME280;33808;37.368;127.108;2023-01-25T08:23:27;101116.47;;;27.04;19.13
48029;BME280;33808;37.368;127.108;2023-01-25T08:26:55;101121.97;;;26.93;18.94
48029;BME280;33808;37.368;127.108;2023-01-25T08:30:24;101115.34;;;26.87;19.16
48029;BME280;33808;37.368;127.108;2023-01-25T08:33:53;101107.06;;;26.80;19.10
48029;BME280;33808;37.368;127.108;2023-01-25T08:37:22;101104.81;;;26.76;19.20
48029;BME280;33808;37.368;127.108;2023-01-25T08:40:50;101103.59;;;26.51;19.03
48029;BME280;33808;37.368;127.108;2023-01-25T08:44:19;101100.06;;;26.40;19.30
48029;BME280;33808;37.368;127.108;2023-01-25T08:47:48;101106.13;;;26.33;19.31
48029;BME280;33808;37.368;127.108;2023-01-25T08:51:17;101096.13;;;26.25;19.14
48029;BME280;33808;37.368;127.108;2023-01-25T08:54:45;101098.25;;;26.21;19.30
48029;BME280;33808;37.368;127.108;2023-01-25T08:58:15;101091.06;;;26.22;19.47
48029;BME280;33808;37.368;127.108;2023-01-25T09:01:23;101086.97;;;26.18;19.58
48029;BME280;33808;37.368;127.108;2023-01-25T09:04:12;101094.75;;;26.21;19.88
48029;BME280;33808;37.368;127.108;2023-01-25T09:07:41;101087.97;;;26.27;20.26
48029;BME280;33808;37.368;127.108;2023-01-25T09:11:11;101078.50;;;26.22;19.95
48029;BME280;33808;37.368;127.108;2023-01-25T09:14:39;101089.63;;;26.28;20.40
48029;BME280;33808;37.368;127.108;2023-01-25T09:17:09;101094.03;;;26.29;20.27
48029;BME280;33808;37.368;127.108;2023-01-25T09:19:38;101083.31;;;26.29;20.52
48029;BME280;33808;37.368;127.108;2023-01-25T09:22:10;101081.47;;;26.29;20.17
48029;BME280;33808;37.368;127.108;2023-01-25T09:24:39;101087.66;;;26.30;20.28
48029;BME280;33808;37.368;127.108;2023-01-25T09:27:29;101063.84;;;26.17;20.55
48029;BME280;33808;37.368;127.108;2023-01-25T09:30:59;101095.69;;;26.30;20.33
48029;BME280;33808;37.368;127.108;2023-01-25T09:34:27;101086.25;;;26.26;20.38
48029;BME280;33808;37.368;127.108;2023-01-25T09:37:55;101092.31;;;26.28;20.59
